Terminal Aerodrome Forecast
Issued by NWS

Home | Current Version | Previous Version | Text Only | Print | Product List | Glossary On
Versions: 1 2 3 4 5 6 7 8 9 10 11 12 13 14 15 16 17 18
222
FTUS42 TJSJ 210955 AAD
TAFIST
TAF AMD
TIST 210955Z 2110/2206 31015KT P6SM VCSH SCT030 BKN110
      TEMPO 2110/2111 VRB20G30KT 3SM SHRA BKN030
     FM211200 31015KT P6SM VCSH SCT030 SCT060
     FM212000 33010KT P6SM FEW030=

USA.gov is the U.S. government's official web portal to all federal, state and local government web resources and services.